sensor_id;sensor_type;location;lat;lon;timestamp;P1;durP1;ratioP1;P2;durP2;ratioP2
39994;SDS011;25686;51.908;10.418;2022-08-21T00:01:37;6.88;;;5.50;;
39994;SDS011;25686;51.908;10.418;2022-08-21T00:03:38;7.70;;;5.15;;
39994;SDS011;25686;51.908;10.418;2022-08-21T00:05:42;6.97;;;5.63;;
39994;SDS011;25686;51.908;10.418;2022-08-21T00:07:44;8.13;;;5.63;;
39994;SDS011;25686;51.908;10.418;2022-08-21T00:09:45;8.25;;;5.45;;
39994;SDS011;25686;51.908;10.418;2022-08-21T00:11:46;6.88;;;5.68;;
39994;SDS011;25686;51.908;10.418;2022-08-21T00:13:47;7.22;;;5.60;;
39994;SDS011;25686;51.908;10.418;2022-08-21T00:15:49;7.55;;;5.50;;
39994;SDS011;25686;51.908;10.418;2022-08-21T00:17:50;9.27;;;5.43;;
39994;SDS011;25686;51.908;10.418;2022-08-21T00:19:51;7.63;;;5.47;;
39994;SDS011;25686;51.908;10.418;2022-08-21T00:21:52;8.77;;;5.28;;
39994;SDS011;25686;51.908;10.418;2022-08-21T00:23:53;6.93;;;5.47;;
39994;SDS011;25686;51.908;10.418;2022-08-21T00:25:54;6.95;;;5.82;;
39994;SDS011;25686;51.908;10.418;2022-08-21T00:27:55;8.07;;;5.40;;
39994;SDS011;25686;51.908;10.418;2022-08-21T00:29:56;9.05;;;5.43;;
39994;SDS011;25686;51.908;10.418;2022-08-21T00:31:57;8.32;;;5.03;;
39994;SDS011;25686;51.908;10.418;2022-08-21T00:33:58;5.72;;;4.95;;
39994;SDS011;25686;51.908;10.418;2022-08-21T00:36:00;6.05;;;5.38;;
39994;SDS011;25686;51.908;10.418;2022-08-21T00:38:02;10.18;;;6.55;;
39994;SDS011;25686;51.908;10.418;2022-08-21T00:40:06;9.93;;;6.63;;
39994;SDS011;25686;51.908;10.418;2022-08-21T00:42:07;8.13;;;6.07;;
39994;SDS011;25686;51.908;10.418;2022-08-21T00:44:09;7.50;;;5.78;;
39994;SDS011;25686;51.908;10.418;2022-08-21T00:46:11;7.10;;;5.28;;
39994;SDS011;25686;51.908;10.418;2022-08-21T00:48:12;7.28;;;5.32;;
39994;SDS011;25686;51.908;10.418;2022-08-21T00:50:13;6.55;;;5.38;;
39994;SDS011;25686;51.908;10.418;2022-08-21T00:52:19;6.57;;;5.47;;
39994;SDS011;25686;51.908;10.418;2022-08-21T00:54:22;6.63;;;5.57;;
39994;SDS011;25686;51.908;10.418;2022-08-21T00:56:24;7.07;;;5.43;;
39994;SDS011;25686;51.908;10.418;2022-08-21T00:58:26;6.03;;;5.47;;
39994;SDS011;25686;51.908;10.418;2022-08-21T01:00:29;10.50;;;5.68;;
39994;SDS011;25686;51.908;10.418;2022-08-21T01:02:30;8.18;;;5.60;;
39994;SDS011;25686;51.908;10.418;2022-08-21T01:04:31;8.75;;;5.32;;
39994;SDS011;25686;51.908;10.418;2022-08-21T01:06:32;6.97;;;5.32;;
39994;SDS011;25686;51.908;10.418;2022-08-21T01:08:33;6.63;;;5.72;;
39994;SDS011;25686;51.908;10.418;2022-08-21T01:10:34;7.47;;;5.50;;
39994;SDS011;25686;51.908;10.418;2022-08-21T01:12:35;10.73;;;5.70;;
39994;SDS011;25686;51.908;10.418;2022-08-21T01:14:36;7.93;;;5.22;;
39994;SDS011;25686;51.908;10.418;2022-08-21T01:16:39;8.75;;;5.40;;
39994;SDS011;25686;51.908;10.418;2022-08-21T01:18:40;6.68;;;5.35;;
39994;SDS011;25686;51.908;10.418;2022-08-21T01:20:43;8.13;;;5.50;;
39994;SDS011;25686;51.908;10.418;2022-08-21T01:22:44;6.32;;;5.53;;
39994;SDS011;25686;51.908;10.418;2022-08-21T01:24:45;8.57;;;5.65;;
39994;SDS011;25686;51.908;10.418;2022-08-21T01:26:46;8.18;;;5.50;;
39994;SDS011;25686;51.908;10.418;2022-08-21T01:29:11;8.13;;;5.53;;
39994;SDS011;25686;51.908;10.418;2022-08-21T01:31:10;7.60;;;5.18;;
39994;SDS011;25686;51.908;10.418;2022-08-21T01:33:12;9.32;;;5.50;;
39994;SDS011;25686;51.908;10.418;2022-08-21T01:35:14;9.60;;;5.70;;
39994;SDS011;25686;51.908;10.418;2022-08-21T01:37:15;7.85;;;5.20;;
39994;SDS011;25686;51.908;10.418;2022-08-21T01:39:17;10.20;;;5.40;;
39994;SDS011;25686;51.908;10.418;2022-08-21T01:41:18;9.02;;;5.60;;
39994;SDS011;25686;51.908;10.418;2022-08-21T01:43:19;7.55;;;5.65;;
39994;SDS011;25686;51.908;10.418;2022-08-21T01:45:19;6.85;;;5.47;;
39994;SDS011;25686;51.908;10.418;2022-08-21T01:47:20;9.63;;;5.63;;
39994;SDS011;25686;51.908;10.418;2022-08-21T01:49:21;6.05;;;5.00;;
39994;SDS011;25686;51.908;10.418;2022-08-21T01:51:22;8.98;;;5.90;;
39994;SDS011;25686;51.908;10.418;2022-08-21T01:53:23;7.93;;;5.80;;
39994;SDS011;25686;51.908;10.418;2022-08-21T01:55:24;6.93;;;6.20;;
39994;SDS011;25686;51.908;10.418;2022-08-21T01:57:26;8.27;;;6.20;;
39994;SDS011;25686;51.908;10.418;2022-08-21T01:59:27;8.60;;;6.35;;
39994;SDS011;25686;51.908;10.418;2022-08-21T02:01:28;7.57;;;5.38;;
39994;SDS011;25686;51.908;10.418;2022-08-21T02:03:29;8.77;;;6.05;;
39994;SDS011;25686;51.908;10.418;2022-08-21T02:05:30;7.30;;;5.47;;
39994;SDS011;25686;51.908;10.418;2022-08-21T02:07:35;10.88;;;5.80;;
39994;SDS011;25686;51.908;10.418;2022-08-21T02:09:37;8.35;;;5.85;;
39994;SDS011;25686;51.908;10.418;2022-08-21T02:11:37;7.75;;;5.15;;
39994;SDS011;25686;51.908;10.418;2022-08-21T02:13:41;6.15;;;5.55;;
39994;SDS011;25686;51.908;10.418;2022-08-21T02:15:43;8.25;;;5.47;;
39994;SDS011;25686;51.908;10.418;2022-08-21T02:19:45;8.25;;;5.95;;
39994;SDS011;25686;51.908;10.418;2022-08-21T02:21:46;8.45;;;5.70;;
39994;SDS011;25686;51.908;10.418;2022-08-21T02:23:47;8.40;;;5.75;;
39994;SDS011;25686;51.908;10.418;2022-08-21T02:25:47;8.73;;;5.30;;
39994;SDS011;25686;51.908;10.418;2022-08-21T02:27:48;9.15;;;5.65;;
39994;SDS011;25686;51.908;10.418;2022-08-21T02:29:50;6.93;;;5.40;;
39994;SDS011;25686;51.908;10.418;2022-08-21T02:31:51;6.55;;;5.30;;
39994;SDS011;25686;51.908;10.418;2022-08-21T02:33:52;6.80;;;5.22;;
39994;SDS011;25686;51.908;10.418;2022-08-21T02:35:54;8.20;;;5.30;;
39994;SDS011;25686;51.908;10.418;2022-08-21T02:37:56;9.48;;;5.65;;
39994;SDS011;25686;51.908;10.418;2022-08-21T02:39:59;7.57;;;5.32;;
39994;SDS011;25686;51.908;10.418;2022-08-21T02:42:00;7.65;;;5.18;;
39994;SDS011;25686;51.908;10.418;2022-08-21T02:44:01;6.95;;;5.32;;
39994;SDS011;25686;51.908;10.418;2022-08-21T02:46:03;8.00;;;5.65;;
39994;SDS011;25686;51.908;10.418;2022-08-21T02:48:07;7.97;;;5.40;;
39994;SDS011;25686;51.908;10.418;2022-08-21T02:50:08;7.00;;;5.68;;
39994;SDS011;25686;51.908;10.418;2022-08-21T02:52:09;7.38;;;5.68;;
39994;SDS011;25686;51.908;10.418;2022-08-21T02:54:11;7.13;;;5.75;;
39994;SDS011;25686;51.908;10.418;2022-08-21T02:56:13;7.30;;;5.47;;
39994;SDS011;25686;51.908;10.418;2022-08-21T02:58:15;9.60;;;5.80;;
39994;SDS011;25686;51.908;10.418;2022-08-21T03:00:17;7.45;;;5.88;;
39994;SDS011;25686;51.908;10.418;2022-08-21T03:02:19;9.65;;;5.95;;
39994;SDS011;25686;51.908;10.418;2022-08-21T03:04:21;9.38;;;5.80;;
39994;SDS011;25686;51.908;10.418;2022-08-21T03:06:22;9.68;;;6.00;;
39994;SDS011;25686;51.908;10.418;2022-08-21T03:08:24;10.27;;;5.80;;
39994;SDS011;25686;51.908;10.418;2022-08-21T03:10:25;6.70;;;5.45;;
39994;SDS011;25686;51.908;10.418;2022-08-21T03:12:26;8.20;;;6.15;;
39994;SDS011;25686;51.908;10.418;2022-08-21T03:14:27;8.70;;;5.93;;
39994;SDS011;25686;51.908;10.418;2022-08-21T03:16:28;9.00;;;6.53;;
39994;SDS011;25686;51.908;10.418;2022-08-21T03:18:29;10.13;;;6.25;;
39994;SDS011;25686;51.908;10.418;2022-08-21T03:20:30;11.40;;;6.38;;
39994;SDS011;25686;51.908;10.418;2022-08-21T03:22:32;7.68;;;6.13;;
39994;SDS011;25686;51.908;10.418;2022-08-21T03:24:33;7.50;;;5.82;;
39994;SDS011;25686;51.908;10.418;2022-08-21T03:26:34;10.90;;;6.43;;
39994;SDS011;25686;51.908;10.418;2022-08-21T03:28:35;10.63;;;6.28;;
39994;SDS011;25686;51.908;10.418;2022-08-21T03:30:36;8.55;;;6.25;;
39994;SDS011;25686;51.908;10.418;2022-08-21T03:32:37;8.38;;;6.28;;
39994;SDS011;25686;51.908;10.418;2022-08-21T03:34:38;8.02;;;6.50;;
39994;SDS011;25686;51.908;10.418;2022-08-21T03:36:39;9.88;;;6.40;;
39994;SDS011;25686;51.908;10.418;2022-08-21T03:38:40;7.70;;;5.97;;
39994;SDS011;25686;51.908;10.418;2022-08-21T03:40:42;9.82;;;6.28;;
39994;SDS011;25686;51.908;10.418;2022-08-21T03:42:43;7.93;;;6.20;;
39994;SDS011;25686;51.908;10.418;2022-08-21T03:44:46;12.05;;;5.95;;
39994;SDS011;25686;51.908;10.418;2022-08-21T03:46:47;8.93;;;6.07;;
39994;SDS011;25686;51.908;10.418;2022-08-21T03:48:48;10.30;;;5.78;;
39994;SDS011;25686;51.908;10.418;2022-08-21T03:50:51;8.20;;;5.82;;
39994;SDS011;25686;51.908;10.418;2022-08-21T03:52:52;10.90;;;6.10;;
39994;SDS011;25686;51.908;10.418;2022-08-21T03:54:53;7.57;;;5.85;;
39994;SDS011;25686;51.908;10.418;2022-08-21T03:56:54;8.25;;;5.90;;
39994;SDS011;25686;51.908;10.418;2022-08-21T03:58:56;7.65;;;5.93;;
39994;SDS011;25686;51.908;10.418;2022-08-21T04:00:58;6.40;;;5.63;;
39994;SDS011;25686;51.908;10.418;2022-08-21T04:02:59;8.25;;;6.25;;
39994;SDS011;25686;51.908;10.418;2022-08-21T04:05:00;6.97;;;6.13;;
39994;SDS011;25686;51.908;10.418;2022-08-21T04:07:01;8.88;;;6.28;;
39994;SDS011;25686;51.908;10.418;2022-08-21T04:09:02;9.70;;;6.15;;
39994;SDS011;25686;51.908;10.418;2022-08-21T04:11:04;7.47;;;6.00;;
39994;SDS011;25686;51.908;10.418;2022-08-21T04:13:06;8.18;;;6.35;;
39994;SDS011;25686;51.908;10.418;2022-08-21T04:15:07;9.73;;;6.25;;
39994;SDS011;25686;51.908;10.418;2022-08-21T04:17:08;10.55;;;6.32;;
39994;SDS011;25686;51.908;10.418;2022-08-21T04:19:09;8.43;;;6.10;;
39994;SDS011;25686;51.908;10.418;2022-08-21T04:21:10;10.43;;;6.18;;
39994;SDS011;25686;51.908;10.418;2022-08-21T04:23:12;6.93;;;6.10;;
39994;SDS011;25686;51.908;10.418;2022-08-21T04:25:13;8.13;;;6.03;;
39994;SDS011;25686;51.908;10.418;2022-08-21T04:27:15;8.90;;;6.20;;
39994;SDS011;25686;51.908;10.418;2022-08-21T04:29:16;8.07;;;5.97;;
39994;SDS011;25686;51.908;10.418;2022-08-21T04:31:17;13.18;;;6.10;;
39994;SDS011;25686;51.908;10.418;2022-08-21T04:33:18;8.10;;;6.15;;
39994;SDS011;25686;51.908;10.418;2022-08-21T04:35:20;7.68;;;5.93;;
39994;SDS011;25686;51.908;10.418;2022-08-21T04:37:21;11.93;;;5.80;;
39994;SDS011;25686;51.908;10.418;2022-08-21T04:39:22;7.85;;;6.05;;
39994;SDS011;25686;51.908;10.418;2022-08-21T04:41:23;6.82;;;5.38;;
39994;SDS011;25686;51.908;10.418;2022-08-21T04:43:24;8.27;;;5.30;;
39994;SDS011;25686;51.908;10.418;2022-08-21T04:47:26;6.90;;;5.72;;
39994;SDS011;25686;51.908;10.418;2022-08-21T04:49:27;6.82;;;5.90;;
39994;SDS011;25686;51.908;10.418;2022-08-21T04:51:30;14.35;;;5.80;;
39994;SDS011;25686;51.908;10.418;2022-08-21T04:55:36;9.25;;;6.10;;
39994;SDS011;25686;51.908;10.418;2022-08-21T04:57:38;6.63;;;5.90;;
39994;SDS011;25686;51.908;10.418;2022-08-21T04:59:41;11.00;;;6.15;;
39994;SDS011;25686;51.908;10.418;2022-08-21T05:01:43;6.22;;;5.63;;
39994;SDS011;25686;51.908;10.418;2022-08-21T05:03:44;9.85;;;5.47;;
39994;SDS011;25686;51.908;10.418;2022-08-21T05:05:46;8.63;;;5.75;;
39994;SDS011;25686;51.908;10.418;2022-08-21T05:07:48;10.40;;;5.75;;
39994;SDS011;25686;51.908;10.418;2022-08-21T05:09:49;6.15;;;5.15;;
39994;SDS011;25686;51.908;10.418;2022-08-21T05:11:50;9.32;;;5.00;;
39994;SDS011;25686;51.908;10.418;2022-08-21T05:13:52;6.13;;;5.00;;
39994;SDS011;25686;51.908;10.418;2022-08-21T05:15:53;8.60;;;5.13;;
39994;SDS011;25686;51.908;10.418;2022-08-21T05:17:54;7.55;;;4.88;;
39994;SDS011;25686;51.908;10.418;2022-08-21T05:19:55;7.55;;;4.90;;
39994;SDS011;25686;51.908;10.418;2022-08-21T05:21:56;5.00;;;4.60;;
39994;SDS011;25686;51.908;10.418;2022-08-21T05:23:58;5.75;;;4.40;;
39994;SDS011;25686;51.908;10.418;2022-08-21T05:25:59;6.78;;;4.53;;
39994;SDS011;25686;51.908;10.418;2022-08-21T05:28:00;6.85;;;4.30;;
39994;SDS011;25686;51.908;10.418;2022-08-21T05:30:01;6.07;;;4.30;;
39994;SDS011;25686;51.908;10.418;2022-08-21T05:32:08;6.25;;;4.32;;
39994;SDS011;25686;51.908;10.418;2022-08-21T05:34:09;5.72;;;4.18;;
39994;SDS011;25686;51.908;10.418;2022-08-21T05:36:10;6.65;;;4.53;;
39994;SDS011;25686;51.908;10.418;2022-08-21T05:38:11;5.55;;;4.25;;
39994;SDS011;25686;51.908;10.418;2022-08-21T05:40:12;6.32;;;4.53;;
39994;SDS011;25686;51.908;10.418;2022-08-21T05:42:14;6.28;;;4.35;;
39994;SDS011;25686;51.908;10.418;2022-08-21T05:44:14;8.13;;;3.97;;
39994;SDS011;25686;51.908;10.418;2022-08-21T05:46:15;5.78;;;4.20;;
39994;SDS011;25686;51.908;10.418;2022-08-21T05:48:18;5.70;;;4.22;;
39994;SDS011;25686;51.908;10.418;2022-08-21T05:50:19;8.68;;;4.25;;
39994;SDS011;25686;51.908;10.418;2022-08-21T05:52:21;6.18;;;4.70;;
39994;SDS011;25686;51.908;10.418;2022-08-21T05:54:22;6.45;;;4.10;;
39994;SDS011;25686;51.908;10.418;2022-08-21T05:56:23;6.72;;;4.22;;
39994;SDS011;25686;51.908;10.418;2022-08-21T05:58:24;5.43;;;3.92;;
39994;SDS011;25686;51.908;10.418;2022-08-21T06:00:25;3.97;;;3.50;;
39994;SDS011;25686;51.908;10.418;2022-08-21T06:02:26;5.20;;;3.50;;
39994;SDS011;25686;51.908;10.418;2022-08-21T06:04:27;4.43;;;3.30;;
39994;SDS011;25686;51.908;10.418;2022-08-21T06:06:28;6.30;;;3.50;;
39994;SDS011;25686;51.908;10.418;2022-08-21T06:08:30;5.95;;;3.55;;
39994;SDS011;25686;51.908;10.418;2022-08-21T06:10:30;6.07;;;4.00;;
39994;SDS011;25686;51.908;10.418;2022-08-21T06:12:32;7.78;;;3.78;;
39994;SDS011;25686;51.908;10.418;2022-08-21T06:14:33;4.82;;;3.47;;
39994;SDS011;25686;51.908;10.418;2022-08-21T06:16:33;5.88;;;3.10;;
39994;SDS011;25686;51.908;10.418;2022-08-21T06:18:35;5.57;;;3.17;;
39994;SDS011;25686;51.908;10.418;2022-08-21T06:20:36;5.30;;;3.58;;
39994;SDS011;25686;51.908;10.418;2022-08-21T06:22:37;4.72;;;3.67;;
39994;SDS011;25686;51.908;10.418;2022-08-21T06:24:38;7.15;;;3.50;;
39994;SDS011;25686;51.908;10.418;2022-08-21T06:26:39;7.30;;;2.88;;
39994;SDS011;25686;51.908;10.418;2022-08-21T06:28:40;4.75;;;3.08;;
39994;SDS011;25686;51.908;10.418;2022-08-21T06:30:42;5.28;;;3.25;;
39994;SDS011;25686;51.908;10.418;2022-08-21T06:32:43;5.05;;;2.83;;
39994;SDS011;25686;51.908;10.418;2022-08-21T06:34:44;4.50;;;2.80;;
39994;SDS011;25686;51.908;10.418;2022-08-21T06:36:45;7.40;;;3.10;;
39994;SDS011;25686;51.908;10.418;2022-08-21T06:38:46;5.43;;;2.80;;
39994;SDS011;25686;51.908;10.418;2022-08-21T06:40:47;3.40;;;2.80;;
39994;SDS011;25686;51.908;10.418;2022-08-21T06:42:48;4.88;;;2.72;;
39994;SDS011;25686;51.908;10.418;2022-08-21T06:44:49;7.05;;;2.80;;
39994;SDS011;25686;51.908;10.418;2022-08-21T06:46:50;2.75;;;2.40;;
39994;SDS011;25686;51.908;10.418;2022-08-21T06:48:51;5.70;;;2.80;;
39994;SDS011;25686;51.908;10.418;2022-08-21T06:50:52;7.03;;;2.83;;
39994;SDS011;25686;51.908;10.418;2022-08-21T06:53:04;5.97;;;3.30;;
39994;SDS011;25686;51.908;10.418;2022-08-21T06:55:06;4.82;;;3.10;;
39994;SDS011;25686;51.908;10.418;2022-08-21T06:57:07;8.18;;;2.90;;
39994;SDS011;25686;51.908;10.418;2022-08-21T06:59:08;4.82;;;2.92;;
39994;SDS011;25686;51.908;10.418;2022-08-21T07:01:09;7.20;;;2.72;;
39994;SDS011;25686;51.908;10.418;2022-08-21T07:03:24;5.05;;;2.83;;
39994;SDS011;25686;51.908;10.418;2022-08-21T07:05:28;4.55;;;2.78;;
39994;SDS011;25686;51.908;10.418;2022-08-21T07:07:29;3.38;;;2.72;;
39994;SDS011;25686;51.908;10.418;2022-08-21T07:09:30;4.60;;;2.85;;
39994;SDS011;25686;51.908;10.418;2022-08-21T07:11:31;6.30;;;2.80;;
39994;SDS011;25686;51.908;10.418;2022-08-21T07:13:32;4.80;;;3.05;;
39994;SDS011;25686;51.908;10.418;2022-08-21T07:15:33;4.93;;;2.92;;
39994;SDS011;25686;51.908;10.418;2022-08-21T07:17:34;5.57;;;2.75;;
39994;SDS011;25686;51.908;10.418;2022-08-21T07:19:35;5.15;;;2.17;;
39994;SDS011;25686;51.908;10.418;2022-08-21T07:21:36;3.83;;;2.58;;
39994;SDS011;25686;51.908;10.418;2022-08-21T07:23:39;5.78;;;2.50;;
39994;SDS011;25686;51.908;10.418;2022-08-21T07:25:41;5.35;;;2.60;;
39994;SDS011;25686;51.908;10.418;2022-08-21T07:27:42;5.68;;;2.63;;
39994;SDS011;25686;51.908;10.418;2022-08-21T07:29:43;4.70;;;2.20;;
39994;SDS011;25686;51.908;10.418;2022-08-21T07:31:44;5.13;;;2.10;;
39994;SDS011;25686;51.908;10.418;2022-08-21T07:33:45;5.63;;;2.50;;
39994;SDS011;25686;51.908;10.418;2022-08-21T07:35:46;3.63;;;2.10;;
39994;SDS011;25686;51.908;10.418;2022-08-21T07:37:47;6.38;;;2.00;;
39994;SDS011;25686;51.908;10.418;2022-08-21T07:39:48;5.97;;;1.92;;
39994;SDS011;25686;51.908;10.418;2022-08-21T07:41:50;5.82;;;2.20;;
39994;SDS011;25686;51.908;10.418;2022-08-21T07:43:51;4.97;;;2.10;;
39994;SDS011;25686;51.908;10.418;2022-08-21T07:45:53;6.60;;;2.00;;
39994;SDS011;25686;51.908;10.418;2022-08-21T07:47:54;5.00;;;1.92;;
39994;SDS011;25686;51.908;10.418;2022-08-21T07:49:55;3.95;;;1.67;;
39994;SDS011;25686;51.908;10.418;2022-08-21T07:51:57;5.25;;;1.80;;
39994;SDS011;25686;51.908;10.418;2022-08-21T07:53:58;9.75;;;1.80;;
39994;SDS011;25686;51.908;10.418;2022-08-21T07:55:59;3.47;;;1.80;;
39994;SDS011;25686;51.908;10.418;2022-08-21T07:58:00;5.80;;;1.95;;
39994;SDS011;25686;51.908;10.418;2022-08-21T08:00:02;5.03;;;2.05;;
39994;SDS011;25686;51.908;10.418;2022-08-21T08:02:03;5.68;;;1.98;;
39994;SDS011;25686;51.908;10.418;2022-08-21T08:04:04;6.30;;;2.20;;
39994;SDS011;25686;51.908;10.418;2022-08-21T08:06:06;5.45;;;2.15;;
39994;SDS011;25686;51.908;10.418;2022-08-21T08:08:11;7.32;;;2.75;;
39994;SDS011;25686;51.908;10.418;2022-08-21T08:10:12;6.47;;;2.40;;
39994;SDS011;25686;51.908;10.418;2022-08-21T08:12:13;8.13;;;2.30;;
39994;SDS011;25686;51.908;10.418;2022-08-21T08:14:15;8.50;;;2.47;;
39994;SDS011;25686;51.908;10.418;2022-08-21T08:16:17;5.45;;;2.00;;
39994;SDS011;25686;51.908;10.418;2022-08-21T08:18:18;7.30;;;2.10;;
39994;SDS011;25686;51.908;10.418;2022-08-21T08:20:19;8.90;;;2.50;;
39994;SDS011;25686;51.908;10.418;2022-08-21T08:22:22;6.15;;;2.15;;
39994;SDS011;25686;51.908;10.418;2022-08-21T08:24:23;8.45;;;2.40;;
39994;SDS011;25686;51.908;10.418;2022-08-21T08:26:24;6.65;;;2.50;;
39994;SDS011;25686;51.908;10.418;2022-08-21T08:28:25;8.88;;;2.60;;
39994;SDS011;25686;51.908;10.418;2022-08-21T08:30:27;9.05;;;2.90;;
39994;SDS011;25686;51.908;10.418;2022-08-21T08:32:28;12.52;;;3.25;;
39994;SDS011;25686;51.908;10.418;2022-08-21T08:34:30;9.95;;;2.80;;
39994;SDS011;25686;51.908;10.418;2022-08-21T08:36:32;6.65;;;2.10;;
39994;SDS011;25686;51.908;10.418;2022-08-21T08:38:33;10.32;;;2.47;;
39994;SDS011;25686;51.908;10.418;2022-08-21T08:40:43;9.27;;;2.70;;
39994;SDS011;25686;51.908;10.418;2022-08-21T08:42:45;7.53;;;2.58;;
39994;SDS011;25686;51.908;10.418;2022-08-21T08:44:47;5.55;;;2.10;;
39994;SDS011;25686;51.908;10.418;2022-08-21T08:46:48;6.47;;;2.30;;
39994;SDS011;25686;51.908;10.418;2022-08-21T08:48:52;4.93;;;1.88;;
39994;SDS011;25686;51.908;10.418;2022-08-21T08:50:56;7.18;;;2.20;;
39994;SDS011;25686;51.908;10.418;2022-08-21T08:52:59;6.65;;;2.35;;
39994;SDS011;25686;51.908;10.418;2022-08-21T08:55:04;7.28;;;2.20;;
39994;SDS011;25686;51.908;10.418;2022-08-21T08:57:07;8.18;;;2.40;;
39994;SDS011;25686;51.908;10.418;2022-08-21T08:59:18;7.85;;;2.38;;
39994;SDS011;25686;51.908;10.418;2022-08-21T09:01:19;8.93;;;2.50;;
39994;SDS011;25686;51.908;10.418;2022-08-21T09:03:22;7.88;;;2.53;;
39994;SDS011;25686;51.908;10.418;2022-08-21T09:05:28;10.48;;;2.80;;
39994;SDS011;25686;51.908;10.418;2022-08-21T09:07:40;6.00;;;2.08;;
39994;SDS011;25686;51.908;10.418;2022-08-21T09:21:02;7.68;;;2.40;;
39994;SDS011;25686;51.908;10.418;2022-08-21T09:25:12;11.02;;;2.38;;
39994;SDS011;25686;51.908;10.418;2022-08-21T09:27:16;7.53;;;2.47;;
39994;SDS011;25686;51.908;10.418;2022-08-21T09:29:18;7.20;;;2.35;;
39994;SDS011;25686;51.908;10.418;2022-08-21T09:33:21;5.70;;;2.28;;
39994;SDS011;25686;51.908;10.418;2022-08-21T09:35:23;6.70;;;2.72;;
39994;SDS011;25686;51.908;10.418;2022-08-21T09:37:24;6.78;;;2.60;;
39994;SDS011;25686;51.908;10.418;2022-08-21T09:39:30;9.68;;;2.45;;
39994;SDS011;25686;51.908;10.418;2022-08-21T09:41:32;7.13;;;2.65;;
39994;SDS011;25686;51.908;10.418;2022-08-21T09:43:35;10.35;;;2.78;;
39994;SDS011;25686;51.908;10.418;2022-08-21T09:45:38;7.07;;;2.78;;
39994;SDS011;25686;51.908;10.418;2022-08-21T09:47:39;11.10;;;3.47;;
39994;SDS011;25686;51.908;10.418;2022-08-21T09:49:41;7.88;;;2.67;;
39994;SDS011;25686;51.908;10.418;2022-08-21T09:51:49;7.25;;;3.22;;
39994;SDS011;25686;51.908;10.418;2022-08-21T09:53:52;8.68;;;3.53;;
39994;SDS011;25686;51.908;10.418;2022-08-21T09:56:00;8.68;;;2.97;;
39994;SDS011;25686;51.908;10.418;2022-08-21T09:58:29;7.72;;;3.00;;
39994;SDS011;25686;51.908;10.418;2022-08-21T10:00:31;7.70;;;3.08;;
39994;SDS011;25686;51.908;10.418;2022-08-21T10:02:33;9.00;;;3.40;;
39994;SDS011;25686;51.908;10.418;2022-08-21T10:04:35;10.10;;;3.20;;
39994;SDS011;25686;51.908;10.418;2022-08-21T10:06:36;7.93;;;2.90;;
39994;SDS011;25686;51.908;10.418;2022-08-21T10:08:37;10.90;;;3.25;;
39994;SDS011;25686;51.908;10.418;2022-08-21T10:10:39;9.32;;;2.90;;
39994;SDS011;25686;51.908;10.418;2022-08-21T10:12:52;7.95;;;3.20;;
39994;SDS011;25686;51.908;10.418;2022-08-21T10:17:14;8.95;;;2.90;;
39994;SDS011;25686;51.908;10.418;2022-08-21T10:21:21;7.97;;;2.70;;
39994;SDS011;25686;51.908;10.418;2022-08-21T10:33:53;8.00;;;3.35;;
39994;SDS011;25686;51.908;10.418;2022-08-21T10:36:00;9.38;;;3.10;;
39994;SDS011;25686;51.908;10.418;2022-08-21T10:42:12;8.73;;;2.92;;
39994;SDS011;25686;51.908;10.418;2022-08-21T10:52:50;8.50;;;3.17;;
39994;SDS011;25686;51.908;10.418;2022-08-21T10:57:05;7.68;;;3.10;;
39994;SDS011;25686;51.908;10.418;2022-08-21T10:59:21;7.35;;;3.10;;
39994;SDS011;25686;51.908;10.418;2022-08-21T11:01:27;6.32;;;2.80;;
39994;SDS011;25686;51.908;10.418;2022-08-21T11:03:33;7.43;;;2.95;;
39994;SDS011;25686;51.908;10.418;2022-08-21T11:05:38;8.05;;;3.28;;
39994;SDS011;25686;51.908;10.418;2022-08-21T11:07:48;9.20;;;3.17;;
39994;SDS011;25686;51.908;10.418;2022-08-21T11:09:53;6.80;;;3.28;;
39994;SDS011;25686;51.908;10.418;2022-08-21T11:12:09;6.20;;;3.35;;
39994;SDS011;25686;51.908;10.418;2022-08-21T11:18:31;6.07;;;3.10;;
39994;SDS011;25686;51.908;10.418;2022-08-21T11:20:34;5.15;;;3.00;;
39994;SDS011;25686;51.908;10.418;2022-08-21T11:22:49;8.80;;;3.20;;
39994;SDS011;25686;51.908;10.418;2022-08-21T11:29:39;8.38;;;2.80;;
39994;SDS011;25686;51.908;10.418;2022-08-21T11:31:50;6.47;;;2.65;;
39994;SDS011;25686;51.908;10.418;2022-08-21T11:34:04;7.15;;;3.03;;
39994;SDS011;25686;51.908;10.418;2022-08-21T11:40:44;9.80;;;2.65;;
39994;SDS011;25686;51.908;10.418;2022-08-21T11:42:50;5.65;;;2.72;;
39994;SDS011;25686;51.908;10.418;2022-08-21T11:44:57;8.00;;;2.42;;
39994;SDS011;25686;51.908;10.418;2022-08-21T11:47:37;4.97;;;2.30;;
39994;SDS011;25686;51.908;10.418;2022-08-21T11:49:34;3.88;;;2.40;;
39994;SDS011;25686;51.908;10.418;2022-08-21T11:56:19;6.07;;;2.88;;
39994;SDS011;25686;51.908;10.418;2022-08-21T11:58:24;8.02;;;2.33;;
39994;SDS011;25686;51.908;10.418;2022-08-21T12:00:29;10.40;;;2.70;;
39994;SDS011;25686;51.908;10.418;2022-08-21T12:02:33;5.63;;;1.95;;
39994;SDS011;25686;51.908;10.418;2022-08-21T12:04:35;4.93;;;2.30;;
39994;SDS011;25686;51.908;10.418;2022-08-21T12:06:42;5.45;;;2.30;;
39994;SDS011;25686;51.908;10.418;2022-08-21T12:08:44;5.15;;;1.98;;
39994;SDS011;25686;51.908;10.418;2022-08-21T12:10:46;7.07;;;2.45;;
39994;SDS011;25686;51.908;10.418;2022-08-21T12:12:47;7.07;;;2.42;;
39994;SDS011;25686;51.908;10.418;2022-08-21T12:14:49;4.90;;;2.33;;
39994;SDS011;25686;51.908;10.418;2022-08-21T12:16:50;4.88;;;2.17;;
39994;SDS011;25686;51.908;10.418;2022-08-21T12:19:01;5.30;;;1.90;;
39994;SDS011;25686;51.908;10.418;2022-08-21T12:23:32;6.40;;;2.05;;
39994;SDS011;25686;51.908;10.418;2022-08-21T12:28:07;4.50;;;2.10;;
39994;SDS011;25686;51.908;10.418;2022-08-21T12:30:20;2.92;;;1.92;;
39994;SDS011;25686;51.908;10.418;2022-08-21T12:32:26;7.05;;;2.50;;
39994;SDS011;25686;51.908;10.418;2022-08-21T12:34:38;5.75;;;2.10;;
39994;SDS011;25686;51.908;10.418;2022-08-21T12:36:43;4.63;;;2.05;;
39994;SDS011;25686;51.908;10.418;2022-08-21T12:38:49;7.20;;;1.92;;
39994;SDS011;25686;51.908;10.418;2022-08-21T12:42:59;4.65;;;1.85;;
39994;SDS011;25686;51.908;10.418;2022-08-21T12:45:03;6.82;;;1.95;;
39994;SDS011;25686;51.908;10.418;2022-08-21T12:47:05;3.80;;;1.83;;
39994;SDS011;25686;51.908;10.418;2022-08-21T12:49:08;6.32;;;2.05;;
39994;SDS011;25686;51.908;10.418;2022-08-21T12:51:14;5.75;;;1.95;;
39994;SDS011;25686;51.908;10.418;2022-08-21T12:55:27;7.45;;;2.00;;
39994;SDS011;25686;51.908;10.418;2022-08-21T12:57:29;4.30;;;1.85;;
39994;SDS011;25686;51.908;10.418;2022-08-21T12:59:30;4.10;;;1.70;;
39994;SDS011;25686;51.908;10.418;2022-08-21T13:01:38;3.95;;;1.70;;
39994;SDS011;25686;51.908;10.418;2022-08-21T13:03:40;6.05;;;1.95;;
39994;SDS011;25686;51.908;10.418;2022-08-21T13:05:41;3.53;;;1.60;;
39994;SDS011;25686;51.908;10.418;2022-08-21T13:07:44;5.70;;;1.90;;
39994;SDS011;25686;51.908;10.418;2022-08-21T13:09:52;2.63;;;1.42;;
39994;SDS011;25686;51.908;10.418;2022-08-21T13:11:54;4.75;;;1.70;;
39994;SDS011;25686;51.908;10.418;2022-08-21T13:13:55;4.10;;;1.70;;
39994;SDS011;25686;51.908;10.418;2022-08-21T13:15:57;4.40;;;1.65;;
39994;SDS011;25686;51.908;10.418;2022-08-21T13:17:59;6.75;;;2.00;;
39994;SDS011;25686;51.908;10.418;2022-08-21T13:20:04;4.65;;;1.67;;
39994;SDS011;25686;51.908;10.418;2022-08-21T13:22:12;4.75;;;1.65;;
39994;SDS011;25686;51.908;10.418;2022-08-21T13:24:15;5.63;;;2.00;;
39994;SDS011;25686;51.908;10.418;2022-08-21T13:26:17;4.38;;;1.73;;